Time;durP1;ratioP1;P1;durP2;ratioP2;P2;SDS_P1;SDS_P2;PMS_P1;PMS_P2;Temp;Humidity;BMP_temperature;BMP_pressure;BME280_temperature;BME280_humidity;BME280_pressure;Samples;Min_cycle;Max_cycle;Signal;HPM_P1;HPM_P2
2022/12/14 00:01:15;;;;;;;9.30;3.45;;;-2.90;1.00;;;;;;5050709;28;20037;-78
2022/12/14 00:03:41;;;;;;;8.63;4.38;;;-2.80;1.00;;;;;;5051917;28;20047;-79
2022/12/14 00:06:19;;;;;;;9.05;3.78;;;-2.80;1.00;;;;;;5050740;28;20029;-78
2022/12/14 00:08:48;;;;;;;8.00;4.45;;;-2.80;1.00;;;;;;5048122;28;20045;-76
2022/12/14 00:11:15;;;;;;;9.95;4.13;;;-2.80;1.00;;;;;;5051290;28;20032;-77
2022/12/14 00:13:42;;;;;;;9.00;4.63;;;-2.80;1.00;;;;;;5051657;28;20402;-79
2022/12/14 00:16:12;;;;;;;10.05;4.53;;;-2.80;1.00;;;;;;5050220;28;20052;-79
2022/12/14 00:18:39;;;;;;;8.30;3.67;;;-2.70;1.00;;;;;;5049910;28;20454;-78
2022/12/14 00:21:07;;;;;;;7.45;3.75;;;-2.80;1.00;;;;;;5050220;28;20036;-78
2022/12/14 00:23:35;;;;;;;7.65;3.90;;;-2.80;1.00;;;;;;5051489;28;20104;-79
2022/12/14 00:26:10;;;;;;;9.43;4.40;;;-2.70;1.00;;;;;;5032259;28;20045;-79
2022/12/14 00:28:36;;;;;;;10.38;4.55;;;-2.70;1.00;;;;;;5032229;28;20485;-79
2022/12/14 00:31:02;;;;;;;7.88;3.72;;;-2.60;1.00;;;;;;5049365;28;20041;-78
2022/12/14 00:33:28;;;;;;;8.85;3.60;;;-2.60;1.00;;;;;;5051458;28;20041;-78
2022/12/14 00:35:55;;;;;;;8.77;3.95;;;-2.60;1.00;;;;;;5049779;28;20056;-78
2022/12/14 00:38:21;;;;;;;7.80;4.25;;;-2.60;1.00;;;;;;5049746;28;20037;-79
2022/12/14 00:40:47;;;;;;;11.60;3.70;;;-2.60;1.00;;;;;;5050894;28;20466;-77
2022/12/14 00:43:13;;;;;;;6.82;3.70;;;-2.60;1.00;;;;;;5050662;28;20029;-78
2022/12/14 00:45:43;;;;;;;8.18;3.30;;;-2.50;1.00;;;;;;5050338;28;20421;-79
2022/12/14 00:48:10;;;;;;;7.15;3.97;;;-2.50;1.00;;;;;;5048801;28;20048;-79
2022/12/14 00:50:36;;;;;;;7.03;3.45;;;-2.50;1.00;;;;;;5050852;28;20025;-78
2022/12/14 00:53:02;;;;;;;8.35;3.40;;;-2.40;1.00;;;;;;5049991;28;20040;-79
2022/12/14 00:55:28;;;;;;;8.52;5.05;;;-2.50;1.00;;;;;;5051207;28;20037;-78
2022/12/14 00:57:55;;;;;;;8.48;3.80;;;-2.50;1.00;;;;;;5042175;28;20040;-79
2022/12/14 01:00:21;;;;;;;7.95;4.25;;;-2.50;1.00;;;;;;5051037;28;20127;-79
2022/12/14 01:02:47;;;;;;;9.25;3.97;;;-2.50;1.00;;;;;;5032229;28;20049;-76
2022/12/14 01:05:13;;;;;;;8.05;4.15;;;-2.50;1.00;;;;;;5050651;28;20029;-78
2022/12/14 01:07:39;;;;;;;5.97;3.53;;;-2.50;1.00;;;;;;5049129;28;20410;-78
2022/12/14 01:10:06;;;;;;;10.95;4.68;;;-2.60;1.00;;;;;;5050044;28;20025;-78
2022/12/14 01:12:32;;;;;;;8.32;3.95;;;-2.60;1.00;;;;;;5050497;28;20393;-78
2022/12/14 01:14:58;;;;;;;9.38;4.47;;;-2.60;1.00;;;;;;5049966;28;20037;-78
2022/12/14 01:17:25;;;;;;;7.20;3.45;;;-2.60;1.00;;;;;;5049076;28;20040;-78
2022/12/14 01:19:51;;;;;;;10.15;3.90;;;-2.60;1.00;;;;;;5050380;28;20402;-77
2022/12/14 01:22:17;;;;;;;9.13;4.38;;;-2.70;1.00;;;;;;5050947;28;20044;-79
2022/12/14 01:24:43;;;;;;;6.88;3.00;;;-2.70;1.00;;;;;;5050482;28;20063;-79
2022/12/14 01:27:10;;;;;;;11.60;4.25;;;-2.70;1.00;;;;;;5049138;28;20032;-78
2022/12/14 01:29:36;;;;;;;8.18;4.10;;;-2.70;1.00;;;;;;5050004;28;20481;-79
2022/12/14 01:32:02;;;;;;;8.30;4.93;;;-2.60;1.00;;;;;;5050045;28;20059;-78
2022/12/14 01:34:30;;;;;;;7.03;4.30;;;-2.60;1.00;;;;;;5049915;28;20041;-79
2022/12/14 01:36:56;;;;;;;7.68;3.90;;;-2.60;1.00;;;;;;5049827;28;20374;-78
2022/12/14 01:39:22;;;;;;;8.20;4.03;;;-2.60;1.00;;;;;;5049311;28;20033;-78
2022/12/14 01:41:53;;;;;;;8.82;3.90;;;-2.60;1.00;;;;;;5033323;28;20398;-76
2022/12/14 01:44:19;;;;;;;9.15;4.38;;;-2.60;1.00;;;;;;5054800;28;20033;-78
2022/12/14 01:46:51;;;;;;;7.78;3.50;;;-2.60;1.00;;;;;;5054336;28;20036;-78
2022/12/14 01:49:17;;;;;;;9.70;3.83;;;-2.50;1.00;;;;;;5052958;28;20052;-78
2022/12/14 01:51:48;;;;;;;8.90;5.15;;;-2.50;1.00;;;;;;5061364;28;20036;-78
2022/12/14 01:54:15;;;;;;;10.15;4.75;;;-2.60;1.00;;;;;;5070946;28;20037;-78
2022/12/14 01:56:44;;;;;;;8.00;4.68;;;-2.60;1.00;;;;;;5065741;28;20393;-79
2022/12/14 01:59:20;;;;;;;8.45;4.22;;;-2.60;1.00;;;;;;5034854;28;20028;-79
2022/12/14 02:01:47;;;;;;;8.93;3.85;;;-2.60;1.00;;;;;;5054015;28;20045;-79
2022/12/14 02:04:16;;;;;;;7.70;3.70;;;-2.70;1.00;;;;;;5053080;28;20469;-78
2022/12/14 02:06:43;;;;;;;8.77;3.75;;;-2.70;1.00;;;;;;5053979;28;20629;-78
2022/12/14 02:09:17;;;;;;;7.97;3.20;;;-2.70;1.00;;;;;;5051813;28;20425;-78
2022/12/14 02:11:43;;;;;;;9.43;4.40;;;-2.70;1.00;;;;;;5053381;28;20040;-79
2022/12/14 02:14:09;;;;;;;9.93;4.22;;;-2.60;1.00;;;;;;5052969;28;20040;-79
2022/12/14 02:16:36;;;;;;;7.95;3.80;;;-2.60;1.00;;;;;;5053263;28;20048;-78
2022/12/14 02:19:03;;;;;;;7.28;3.58;;;-2.60;1.00;;;;;;5033535;28;20040;-79
2022/12/14 02:21:37;;;;;;;6.40;3.10;;;-2.60;1.00;;;;;;5053447;28;20033;-79
2022/12/14 02:24:33;;;;;;;7.88;3.33;;;-2.60;1.00;;;;;;5017948;28;20040;-78
2022/12/14 02:27:33;;;;;;;5.38;2.67;;;-2.60;1.00;;;;;;4964178;28;20043;-78
2022/12/14 02:30:06;;;;;;;8.15;3.45;;;-2.50;1.00;;;;;;5049515;28;20477;-78
2022/12/14 02:32:51;;;;;;;7.03;3.65;;;-2.50;1.00;;;;;;5052652;28;20049;-79
2022/12/14 02:35:24;;;;;;;8.95;4.22;;;-2.50;1.00;;;;;;5053011;28;20041;-79
2022/12/14 02:38:28;;;;;;;9.57;3.75;;;-2.50;1.00;;;;;;5052199;28;20041;-78
2022/12/14 02:41:37;;;;;;;10.27;3.83;;;-2.50;1.00;;;;;;5052962;28;20033;-77
2022/12/14 02:44:21;;;;;;;6.80;3.33;;;-2.40;1.00;;;;;;5058616;28;20040;-79
2022/12/14 02:46:56;;;;;;;7.22;3.92;;;-2.50;1.00;;;;;;5036541;28;20393;-78
2022/12/14 02:49:44;;;;;;;9.35;3.78;;;-2.40;1.00;;;;;;5052998;28;20029;-79
2022/12/14 02:52:26;;;;;;;7.93;4.30;;;-2.40;1.00;;;;;;5053386;28;20033;-79
2022/12/14 02:55:00;;;;;;;10.13;3.85;;;-2.40;1.00;;;;;;5052207;28;20048;-77
2022/12/14 02:57:42;;;;;;;5.38;3.17;;;-2.40;1.00;;;;;;5033659;28;20402;-79
2022/12/14 03:00:10;;;;;;;7.22;3.75;;;-2.40;1.00;;;;;;5052079;28;20073;-79
2022/12/14 03:02:39;;;;;;;6.18;2.92;;;-2.30;1.00;;;;;;5053061;28;20037;-79
2022/12/14 03:05:09;;;;;;;6.95;3.75;;;-2.40;1.00;;;;;;5052292;28;20033;-79
2022/12/14 03:07:58;;;;;;;7.72;3.58;;;-2.40;1.00;;;;;;5051087;28;20041;-79
2022/12/14 03:10:45;;;;;;;8.38;3.70;;;-2.30;1.00;;;;;;5047499;28;20055;-78
2022/12/14 03:13:39;;;;;;;5.97;3.03;;;-2.40;1.00;;;;;;5050714;28;20072;-79
2022/12/14 03:16:20;;;;;;;6.40;2.80;;;-2.30;1.00;;;;;;5002334;28;20122;-79
2022/12/14 03:19:17;;;;;;;6.83;3.40;;;-2.30;1.00;;;;;;5050124;28;20041;-78
2022/12/14 03:21:48;;;;;;;8.95;4.65;;;-2.30;1.00;;;;;;5051764;28;20039;-78
2022/12/14 03:24:19;;;;;;;;;;;-2.20;1.00;;;;;;5051286;28;20108;-78
2022/12/14 03:26:52;;;;;;;8.35;4.05;;;-2.20;1.00;;;;;;5033181;28;20349;-78
2022/12/14 03:29:23;;;;;;;9.38;5.10;;;-2.20;1.00;;;;;;5049947;28;20029;-79
2022/12/14 03:32:01;;;;;;;6.63;3.25;;;-2.20;1.00;;;;;;5051534;28;20386;-79
2022/12/14 03:34:31;;;;;;;6.38;3.35;;;-2.10;1.00;;;;;;5051735;28;20036;-78
2022/12/14 03:37:11;;;;;;;8.50;3.78;;;-2.10;1.00;;;;;;5049752;28;20482;-77
2022/12/14 03:39:42;;;;;;;8.98;3.80;;;-2.10;1.00;;;;;;5051353;28;20386;-78
2022/12/14 03:42:39;;;;;;;4.90;2.72;;;-2.10;1.00;;;;;;5050859;28;20044;-79
2022/12/14 03:45:17;;;;;;;9.55;4.70;;;-2.00;1.00;;;;;;5032749;28;20033;-79
2022/12/14 03:48:13;;;;;;;10.93;4.63;;;-2.00;1.00;;;;;;5049649;28;20100;-79
2022/12/14 03:50:51;;;;;;;10.13;4.15;;;-2.00;1.00;;;;;;5051026;28;20036;-78
2022/12/14 03:53:31;;;;;;;6.93;4.32;;;-2.00;1.00;;;;;;5050823;28;20033;-79
2022/12/14 03:56:17;;;;;;;8.48;3.75;;;-1.90;1.00;;;;;;5032736;28;20421;-78
2022/12/14 03:59:06;;;;;;;8.48;3.58;;;-1.90;1.00;;;;;;5049714;28;20039;-79
2022/12/14 04:01:40;;;;;;;8.63;3.70;;;-1.90;1.00;;;;;;5050942;28;20498;-78
2022/12/14 04:04:17;;;;;;;8.93;4.13;;;-1.90;1.00;;;;;;5041718;28;20033;-78
2022/12/14 04:06:52;;;;;;;7.50;3.25;;;-1.90;1.00;;;;;;5050205;28;20040;-78
2022/12/14 04:09:29;;;;;;;8.90;3.55;;;-2.00;1.00;;;;;;5013582;28;1054979;-79
2022/12/14 04:21:04;;;;;;;10.43;5.95;;;-1.90;1.00;;;;;;5051725;28;20040;-78
2022/12/14 04:26:33;;;;;;;6.45;4.03;;;-1.80;1.00;;;;;;5051626;28;20092;-78
2022/12/14 04:32:16;;;;;;;8.40;4.97;;;-1.80;1.00;;;;;;5051717;28;20040;-79
2022/12/14 04:34:44;;;;;;;9.65;4.97;;;-1.80;1.00;;;;;;5033613;28;20056;-79
2022/12/14 04:37:15;;;;;;;10.52;5.30;;;-1.80;1.00;;;;;;5050524;28;20033;-79
2022/12/14 04:39:51;;;;;;;11.30;5.78;;;-1.80;1.00;;;;;;5050096;28;20059;-78
2022/12/14 04:42:22;;;;;;;11.27;6.57;;;-1.80;1.00;;;;;;5050128;28;20033;-78
2022/12/14 04:44:53;;;;;;;10.48;5.15;;;-1.80;1.00;;;;;;5050877;28;20486;-78
2022/12/14 04:47:26;;;;;;;7.30;4.95;;;-1.70;1.00;;;;;;5031514;28;20040;-80
2022/12/14 04:50:11;;;;;;;9.55;4.18;;;-1.70;1.00;;;;;;5046984;28;20397;-80
2022/12/14 04:52:45;;;;;;;8.75;4.43;;;-1.70;1.00;;;;;;5050832;28;20064;-79
2022/12/14 04:55:36;;;;;;;9.73;4.68;;;-1.70;1.00;;;;;;5050305;28;20056;-79
2022/12/14 04:58:27;;;;;;;9.35;4.88;;;-1.60;1.00;;;;;;5031262;28;20045;-79
2022/12/14 05:01:00;;;;;;;9.85;5.07;;;-1.70;1.00;;;;;;5032851;28;20048;-80
2022/12/14 05:03:32;;;;;;;9.38;4.65;;;-1.70;1.00;;;;;;5049809;28;20029;-80
2022/12/14 05:06:31;;;;;;;10.30;5.13;;;-1.70;1.00;;;;;;5050664;28;20469;-78
2022/12/14 05:09:11;;;;;;;11.70;5.53;;;-1.60;1.00;;;;;;5049058;28;20041;-78
2022/12/14 05:11:47;;;;;;;10.88;6.60;;;-1.60;1.00;;;;;;5050790;28;20033;-80
2022/12/14 05:14:40;;;;;;;11.27;5.95;;;-1.50;1.00;;;;;;5032451;28;20427;-79
2022/12/14 05:17:07;;;;;;;10.63;6.07;;;-1.50;1.00;;;;;;5033442;28;20040;-79
2022/12/14 05:19:33;;;;;;;8.45;5.25;;;-1.40;1.00;;;;;;5053348;28;20037;-79
2022/12/14 05:22:07;;;;;;;13.73;6.00;;;-1.50;1.00;;;;;;5053923;28;20040;-78
2022/12/14 05:24:33;;;;;;;9.20;5.45;;;-1.50;1.00;;;;;;5036833;28;20037;-79
2022/12/14 05:27:00;;;;;;;10.38;5.80;;;-1.50;1.00;;;;;;5036417;28;20143;-78
2022/12/14 05:29:26;;;;;;;6.88;4.30;;;-1.50;1.00;;;;;;5053027;28;20052;-80
2022/12/14 05:31:52;;;;;;;7.65;4.00;;;-1.60;1.00;;;;;;5054628;28;20036;-79
2022/12/14 05:34:18;;;;;;;7.90;3.88;;;-1.70;1.00;;;;;;5053638;28;20285;-79
2022/12/14 05:36:44;;;;;;;8.85;4.53;;;-1.70;1.00;;;;;;5035758;28;20044;-80
2022/12/14 05:39:10;;;;;;;7.07;3.80;;;-1.70;1.00;;;;;;5052463;28;20378;-79
2022/12/14 05:41:36;;;;;;;7.20;3.60;;;-1.70;1.00;;;;;;5054283;28;20382;-79
2022/12/14 05:44:03;;;;;;;7.72;4.20;;;-1.70;1.00;;;;;;5053396;28;20029;-79
2022/12/14 05:46:29;;;;;;;8.73;4.25;;;-1.80;1.00;;;;;;5054250;28;20033;-79
2022/12/14 05:48:55;;;;;;;8.60;4.07;;;-1.80;1.00;;;;;;5052533;28;20394;-79
2022/12/14 05:51:21;;;;;;;9.18;5.30;;;-1.80;1.00;;;;;;5053639;28;20037;-80
2022/12/14 05:53:47;;;;;;;11.77;5.70;;;-1.80;1.00;;;;;;5036494;28;20466;-79
2022/12/14 05:56:14;;;;;;;10.25;5.57;;;-1.90;1.00;;;;;;5035364;28;20037;-79
2022/12/14 05:58:40;;;;;;;10.93;6.10;;;-1.90;1.00;;;;;;5052639;28;20036;-80
2022/12/14 06:01:09;;;;;;;10.23;5.38;;;-1.90;1.00;;;;;;5053597;28;20025;-79
2022/12/14 06:03:35;;;;;;;9.38;5.43;;;-1.90;1.00;;;;;;5053883;28;20371;-79
2022/12/14 06:06:06;;;;;;;12.50;6.38;;;-2.00;1.00;;;;;;5059999;28;20036;-77
2022/12/14 06:08:34;;;;;;;;;;;-2.00;1.00;;;;;;5065393;28;20064;-79
2022/12/14 06:11:02;;;;;;;15.30;6.85;;;-2.00;1.00;;;;;;5056568;28;19913;-77
2022/12/14 06:13:28;;;;;;;16.38;7.97;;;-2.00;1.00;;;;;;5053249;28;20036;-78
2022/12/14 06:15:54;;;;;;;10.73;5.32;;;-2.10;1.00;;;;;;5053588;28;20033;-78
2022/12/14 06:18:22;;;;;;;14.07;6.07;;;-2.10;1.00;;;;;;5033611;28;20641;-78
2022/12/14 06:20:48;;;;;;;17.00;11.68;;;-2.20;1.00;;;;;;5053165;28;20029;-78
2022/12/14 06:23:14;;;;;;;10.75;6.20;;;-2.20;1.00;;;;;;5052596;28;20033;-78
2022/12/14 06:25:40;;;;;;;14.35;6.85;;;-2.30;1.00;;;;;;5053199;28;20033;-78
2022/12/14 06:28:06;;;;;;;12.63;6.57;;;-2.30;1.00;;;;;;5049893;28;20036;-78
2022/12/14 06:30:32;;;;;;;13.75;6.88;;;-2.30;1.00;;;;;;5052687;28;20485;-78
2022/12/14 06:32:59;;;;;;;19.52;11.88;;;-2.40;1.00;;;;;;5051985;28;20044;-77
2022/12/14 06:35:25;;;;;;;15.35;8.73;;;-2.30;1.00;;;;;;5053360;28;20450;-78
2022/12/14 06:37:51;;;;;;;15.18;8.23;;;-2.40;1.00;;;;;;5053055;28;20048;-78
2022/12/14 06:40:18;;;;;;;17.60;8.60;;;-2.40;1.00;;;;;;5052359;28;20029;-78
2022/12/14 06:42:46;;;;;;;16.10;7.90;;;-2.40;2.50;;;;;;5053334;28;20033;-79
2022/12/14 06:45:12;;;;;;;16.25;8.52;;;-2.40;6.00;;;;;;5052061;28;20040;-79
2022/12/14 06:47:39;;;;;;;16.80;9.48;;;-2.40;9.60;;;;;;5052664;28;20081;-78
2022/12/14 06:50:05;;;;;;;17.45;9.57;;;-2.40;13.40;;;;;;5051547;28;20033;-78
2022/12/14 06:52:31;;;;;;;18.98;9.77;;;-2.40;17.50;;;;;;5052871;28;20037;-79
2022/12/14 06:54:57;;;;;;;18.48;10.50;;;-2.30;21.20;;;;;;5034924;28;20045;-78
2022/12/14 06:57:23;;;;;;;16.60;9.63;;;-2.30;24.80;;;;;;5052105;28;20032;-78
2022/12/14 06:59:49;;;;;;;19.48;10.55;;;-2.40;29.40;;;;;;5051224;28;20029;-77
2022/12/14 07:02:16;;;;;;;19.27;10.63;;;-2.40;32.60;;;;;;5052178;28;20037;-76
2022/12/14 07:04:42;;;;;;;22.50;11.55;;;-2.40;35.30;;;;;;5053154;28;20029;-76
2022/12/14 07:07:09;;;;;;;24.27;13.65;;;-2.40;38.10;;;;;;5051506;28;20052;-76
2022/12/14 07:09:35;;;;;;;22.35;12.05;;;-2.30;44.20;;;;;;5032908;28;20055;-75
2022/12/14 07:12:01;;;;;;;23.10;13.70;;;-2.30;47.00;;;;;;5052014;28;20032;-76
2022/12/14 07:14:27;;;;;;;29.85;14.38;;;-2.30;48.80;;;;;;5052291;28;20049;-76
2022/12/14 07:16:53;;;;;;;29.98;16.60;;;-2.30;50.20;;;;;;5052349;28;20037;-75
2022/12/14 07:19:20;;;;;;;29.70;16.42;;;-2.20;50.70;;;;;;5049559;28;20055;-76
2022/12/14 07:21:46;;;;;;;33.83;18.05;;;-2.20;51.40;;;;;;5052029;28;20025;-75
2022/12/14 07:24:12;;;;;;;33.40;17.60;;;-2.20;50.90;;;;;;5051501;28;20032;-76
2022/12/14 07:26:38;;;;;;;30.58;16.63;;;-2.20;49.20;;;;;;5052525;28;20469;-76
2022/12/14 07:29:05;;;;;;;28.75;16.88;;;-2.20;48.30;;;;;;5050450;28;20385;-76
2022/12/14 07:31:31;;;;;;;32.72;17.77;;;-2.20;47.20;;;;;;5052424;28;20029;-76
2022/12/14 07:33:58;;;;;;;34.25;16.10;;;-2.10;45.90;;;;;;5051881;28;20033;-76
2022/12/14 07:36:26;;;;;;;30.60;16.38;;;-2.10;44.20;;;;;;5051006;28;20043;-76
2022/12/14 07:38:56;;;;;;;29.33;16.95;;;-2.10;42.60;;;;;;5050666;28;20148;-76
2022/12/14 07:41:29;;;;;;;31.38;16.52;;;-2.10;41.80;;;;;;5044749;28;20025;-76
2022/12/14 07:43:56;;;;;;;32.88;17.67;;;-2.10;41.10;;;;;;5051651;28;20374;-76
2022/12/14 07:46:25;;;;;;;35.38;18.83;;;-2.10;40.20;;;;;;5051040;28;20033;-76
2022/12/14 07:48:54;;;;;;;30.10;17.00;;;-2.10;39.30;;;;;;5049091;28;20049;-76
2022/12/14 07:51:23;;;;;;;34.22;19.58;;;-2.00;37.90;;;;;;5050124;28;20041;-75
2022/12/14 07:53:50;;;;;;;39.67;18.75;;;-2.00;36.30;;;;;;5033383;28;20056;-76
2022/12/14 07:56:19;;;;;;;33.63;18.00;;;-2.10;36.10;;;;;;5050607;28;20037;-76
2022/12/14 07:58:45;;;;;;;37.42;18.10;;;-2.00;36.20;;;;;;5049945;28;20462;-76
2022/12/14 08:01:23;;;;;;;35.38;17.60;;;-2.10;36.40;;;;;;5050625;28;20044;-76
2022/12/14 08:03:57;;;;;;;35.08;19.20;;;-2.00;37.70;;;;;;5046576;28;20044;-75
2022/12/14 08:06:26;;;;;;;28.85;16.58;;;-2.00;37.90;;;;;;5051068;28;20570;-76
2022/12/14 08:08:53;;;;;;;32.33;17.50;;;-2.00;38.10;;;;;;5049622;28;20060;-76
2022/12/14 08:11:23;;;;;;;27.15;16.27;;;-2.00;38.30;;;;;;5050652;28;20501;-74
2022/12/14 08:14:10;;;;;;;29.77;16.20;;;-2.00;40.70;;;;;;5051397;28;20032;-76
2022/12/14 08:16:37;;;;;;;28.33;15.00;;;-2.00;43.10;;;;;;5051621;28;20037;-75
2022/12/14 08:19:03;;;;;;;29.85;16.73;;;-2.00;44.10;;;;;;5049928;28;20033;-76
2022/12/14 08:21:29;;;;;;;33.17;17.00;;;-2.00;47.20;;;;;;5050869;28;20036;-75
2022/12/14 08:23:56;;;;;;;29.80;17.25;;;-2.10;49.90;;;;;;5051242;28;20037;-75
2022/12/14 08:26:24;;;;;;;34.75;17.77;;;-2.10;52.00;;;;;;5050768;28;20485;-76
2022/12/14 08:28:50;;;;;;;31.88;16.80;;;-2.10;53.30;;;;;;5049773;28;20488;-77
2022/12/14 08:31:19;;;;;;;33.22;17.05;;;-2.10;55.60;;;;;;5050210;28;20036;-76
2022/12/14 08:33:46;;;;;;;36.20;20.13;;;-2.10;56.70;;;;;;5050967;28;20048;-76
2022/12/14 08:36:15;;;;;;;30.05;17.95;;;-2.10;55.80;;;;;;5050605;28;20048;-76
2022/12/14 08:38:41;;;;;;;37.70;20.63;;;-2.10;55.90;;;;;;5049974;28;20041;-75
2022/12/14 08:41:11;;;;;;;33.50;17.73;;;-2.00;56.00;;;;;;5050777;28;20044;-76
2022/12/14 08:43:38;;;;;;;33.20;18.67;;;-2.10;54.30;;;;;;5050859;28;20033;-75
2022/12/14 08:46:04;;;;;;;34.17;18.60;;;-2.00;54.00;;;;;;5051233;28;20037;-76
2022/12/14 08:48:31;;;;;;;35.03;18.83;;;-2.00;53.50;;;;;;5048944;28;20029;-75
2022/12/14 08:51:08;;;;;;;34.45;18.17;;;-2.00;52.80;;;;;;5050711;28;20124;-76
2022/12/14 08:53:36;;;;;;;30.15;16.45;;;-2.00;52.00;;;;;;5054422;28;20044;-75
2022/12/14 08:56:11;;;;;;;32.13;16.60;;;-2.10;52.80;;;;;;5054995;28;20041;-75
2022/12/14 08:58:38;;;;;;;31.40;16.90;;;-2.10;53.70;;;;;;5053373;28;20040;-76
2022/12/14 09:01:13;;;;;;;30.30;17.00;;;-2.00;54.40;;;;;;5054914;28;20033;-76
2022/12/14 09:03:45;;;;;;;37.58;18.38;;;-2.10;53.40;;;;;;5054319;28;20040;-76
2022/12/14 09:06:18;;;;;;;29.85;18.45;;;-2.00;55.60;;;;;;5052410;28;20033;-77
2022/12/14 09:08:44;;;;;;;33.10;17.75;;;-2.00;57.80;;;;;;5052658;28;20033;-76
2022/12/14 09:11:13;;;;;;;36.58;18.30;;;-2.00;57.60;;;;;;5019381;28;20052;-77
2022/12/14 09:13:40;;;;;;;31.17;17.67;;;-2.00;58.40;;;;;;5054392;28;20033;-76
2022/12/14 09:16:09;;;;;;;30.02;18.40;;;-2.00;59.30;;;;;;5054654;28;20036;-77
2022/12/14 09:18:36;;;;;;;33.47;19.58;;;-2.00;60.20;;;;;;5051144;28;20036;-77
2022/12/14 09:21:02;;;;;;;35.72;18.75;;;-2.00;57.90;;;;;;5054350;28;20032;-77
2022/12/14 09:23:30;;;;;;;36.75;19.75;;;-2.00;59.80;;;;;;5053311;28;20028;-77
2022/12/14 09:26:15;;;;;;;31.60;16.77;;;-2.00;59.50;;;;;;5036385;28;20040;-77
2022/12/14 09:28:46;;;;;;;31.50;18.17;;;-2.00;59.70;;;;;;5052945;28;20052;-77
2022/12/14 09:31:14;;;;;;;38.10;20.60;;;-2.00;62.70;;;;;;5052441;28;20465;-77
2022/12/14 09:33:40;;;;;;;35.67;19.23;;;-2.00;64.30;;;;;;5053975;28;20133;-77
2022/12/14 09:36:10;;;;;;;33.83;19.08;;;-1.90;64.60;;;;;;5054405;28;20033;-77
2022/12/14 09:38:38;;;;;;;36.38;20.15;;;-1.80;65.40;;;;;;5053281;28;20033;-77
2022/12/14 09:41:15;;;;;;;38.90;19.90;;;-1.80;62.80;;;;;;5054430;28;20104;-77
2022/12/14 09:43:46;;;;;;;37.15;20.38;;;-1.70;60.40;;;;;;5053308;28;20474;-76
2022/12/14 09:46:41;;;;;;;32.47;18.08;;;-1.50;55.20;;;;;;5047928;28;20045;-77
2022/12/14 09:49:23;;;;;;;33.08;18.50;;;-1.50;47.50;;;;;;5052746;28;20029;-78
2022/12/14 09:51:51;;;;;;;35.65;18.83;;;-1.50;45.10;;;;;;5034469;28;20037;-78
2022/12/14 09:54:23;;;;;;;29.27;16.80;;;-1.30;41.10;;;;;;5053105;28;20454;-80
2022/12/14 09:56:51;;;;;;;30.77;17.52;;;-1.30;33.90;;;;;;5052505;28;20040;-78
2022/12/14 09:59:19;;;;;;;28.42;17.23;;;-1.30;29.30;;;;;;5033599;28;20033;-79
2022/12/14 10:01:59;;;;;;;35.00;17.50;;;-1.20;28.30;;;;;;5053727;28;20040;-79
2022/12/14 10:04:43;;;;;;;28.33;16.92;;;-1.20;21.80;;;;;;5050928;28;20035;-78
2022/12/14 10:07:22;;;;;;;32.15;18.13;;;-1.20;20.20;;;;;;5051547;28;20037;-78
2022/12/14 10:10:23;;;;;;;29.13;17.70;;;-1.00;20.00;;;;;;5051585;28;20033;-75
2022/12/14 10:13:18;;;;;;;32.42;16.10;;;-0.90;12.70;;;;;;5050098;28;20037;-77
2022/12/14 10:16:03;;;;;;;27.88;16.80;;;-1.20;9.10;;;;;;5056877;28;20036;-76
2022/12/14 10:18:51;;;;;;;28.40;16.55;;;-1.10;12.00;;;;;;5059262;28;20036;-80
2022/12/14 10:21:23;;;;;;;32.85;17.45;;;-1.10;10.50;;;;;;5055576;28;20029;-80
2022/12/14 10:23:57;;;;;;;28.95;17.10;;;-1.20;10.60;;;;;;5055862;28;20033;-81
2022/12/14 10:26:33;;;;;;;30.38;16.33;;;-1.10;8.90;;;;;;5034816;28;20048;-80
2022/12/14 10:29:10;;;;;;;26.45;15.88;;;-1.00;6.60;;;;;;5053103;28;20036;-79
2022/12/14 10:31:47;;;;;;;31.85;16.13;;;-0.80;6.40;;;;;;5017013;28;20032;-79
2022/12/14 10:34:18;;;;;;;27.63;15.70;;;-0.70;3.10;;;;;;5052808;28;20040;-80
2022/12/14 10:37:25;;;;;;;24.55;14.45;;;-0.90;1.00;;;;;;5051236;28;20035;-80
2022/12/14 10:40:09;;;;;;;31.00;16.65;;;-1.10;1.00;;;;;;5050691;28;20060;-79
2022/12/14 10:43:06;;;;;;;29.42;16.00;;;-1.00;1.00;;;;;;5055432;28;20458;-80
2022/12/14 10:46:37;;;;;;;25.17;15.25;;;-0.90;1.80;;;;;;5053701;28;20057;-80
2022/12/14 10:49:28;;;;;;;25.73;16.08;;;-0.90;1.00;;;;;;4913077;29;20544;-81
2022/12/14 10:52:00;;;;;;;;;;;-1.00;1.00;;;;;;4953191;29;20035;-81
2022/12/14 10:54:51;;;;;;;26.85;15.13;;;-0.90;1.00;;;;;;4934933;29;19922;-80
2022/12/14 10:57:19;;;;;;;28.23;16.63;;;-0.90;1.00;;;;;;4933692;29;20574;-79
2022/12/14 10:59:46;;;;;;;29.35;16.52;;;-0.80;1.00;;;;;;4951744;29;20556;-81
2022/12/14 11:02:16;;;;;;;27.55;16.05;;;-0.70;1.00;;;;;;4952540;29;20035;-78
2022/12/14 11:04:55;;;;;;;28.35;16.60;;;-0.70;1.00;;;;;;4952390;29;20039;-81
2022/12/14 11:07:25;;;;;;;27.17;15.13;;;-0.80;1.00;;;;;;4950868;29;20087;-81
2022/12/14 11:09:51;;;;;;;27.25;17.33;;;-1.00;1.00;;;;;;4951738;29;20062;-80
2022/12/14 11:12:23;;;;;;;29.52;17.35;;;-0.90;2.90;;;;;;4951929;29;20393;-80
2022/12/14 11:15:05;;;;;;;29.10;16.58;;;-0.80;1.50;;;;;;4951884;28;20047;-81
2022/12/14 11:17:33;;;;;;;27.63;17.05;;;-0.80;1.00;;;;;;4949753;29;20047;-80
2022/12/14 11:20:22;;;;;;;29.80;15.07;;;-0.80;1.00;;;;;;5024999;28;20062;-80
2022/12/14 11:23:15;;;;;;;28.67;15.63;;;-0.80;1.00;;;;;;5047327;28;20552;-80
2022/12/14 11:25:47;;;;;;;32.67;16.52;;;-0.90;1.00;;;;;;5052621;28;20028;-81
2022/12/14 11:28:28;;;;;;;27.83;16.85;;;-0.90;1.00;;;;;;5050524;28;20326;-79
2022/12/14 11:31:04;;;;;;;26.58;15.65;;;-0.80;1.00;;;;;;5052239;28;20025;-79
2022/12/14 11:33:35;;;;;;;31.98;16.85;;;-0.90;1.00;;;;;;5045760;28;20036;-77
2022/12/14 11:36:01;;;;;;;27.95;16.23;;;-0.90;1.00;;;;;;5045983;28;20112;-79
2022/12/14 11:38:28;;;;;;;32.80;18.10;;;-0.80;1.00;;;;;;5050361;28;20447;-78
2022/12/14 11:40:55;;;;;;;33.53;18.77;;;-0.80;1.00;;;;;;5052088;28;20052;-79
2022/12/14 11:43:40;;;;;;;30.98;17.27;;;-0.70;1.00;;;;;;5051425;28;20386;-79
2022/12/14 11:46:06;;;;;;;28.20;17.45;;;-0.70;1.00;;;;;;5062642;28;20040;-80
2022/12/14 11:48:37;;;;;;;28.67;16.60;;;-0.80;1.00;;;;;;5070199;28;20039;-80
2022/12/14 11:51:12;;;;;;;31.00;16.83;;;-0.80;1.00;;;;;;5072571;28;20025;-80
2022/12/14 11:53:39;;;;;;;29.95;17.33;;;-0.80;1.00;;;;;;5062454;28;20052;-79
2022/12/14 11:56:12;;;;;;;28.90;15.80;;;-0.80;1.00;;;;;;5052391;28;20040;-78
2022/12/14 11:58:48;;;;;;;31.60;17.90;;;-0.80;1.00;;;;;;5049861;28;20025;-79
2022/12/14 12:01:18;;;;;;;29.95;17.50;;;-0.80;1.00;;;;;;5051815;28;20036;-78
2022/12/14 12:03:48;;;;;;;31.92;18.35;;;-0.90;1.00;;;;;;5051712;28;20044;-79
2022/12/14 12:06:21;;;;;;;27.75;16.77;;;-0.90;1.00;;;;;;5052006;28;20032;-79
2022/12/14 12:09:00;;;;;;;29.70;16.88;;;-0.90;1.00;;;;;;5050463;28;20049;-79
2022/12/14 12:11:29;;;;;;;31.42;17.25;;;-0.90;1.00;;;;;;5044617;28;20355;-79
2022/12/14 12:14:17;;;;;;;30.02;18.70;;;-1.10;1.00;;;;;;5034197;28;20470;-79
2022/12/14 12:16:43;;;;;;;28.83;16.92;;;-0.90;6.20;;;;;;5051376;28;20048;-78
2022/12/14 12:19:27;;;;;;;38.72;19.83;;;-0.90;3.50;;;;;;5049954;28;20036;-77
2022/12/14 12:21:55;;;;;;;31.77;17.52;;;-0.90;3.10;;;;;;5033438;28;20032;-77
2022/12/14 12:24:21;;;;;;;29.90;17.60;;;-0.90;4.80;;;;;;5050490;28;20037;-78
2022/12/14 12:26:52;;;;;;;36.03;21.08;;;-0.90;4.00;;;;;;5051185;28;20390;-81
2022/12/14 12:29:30;;;;;;;48.03;24.75;;;-0.80;3.00;;;;;;5024786;28;20487;-78
2022/12/14 12:32:24;;;;;;;58.60;30.45;;;-0.90;1.00;;;;;;5052027;28;20355;-82
2022/12/14 12:35:01;;;;;;;30.33;17.48;;;-0.80;1.00;;;;;;5051030;28;20036;-82
2022/12/14 12:37:32;;;;;;;29.20;16.70;;;-0.80;1.00;;;;;;5046896;28;20036;-81
2022/12/14 12:40:12;;;;;;;27.67;16.63;;;-0.80;1.00;;;;;;5046802;28;20037;-81
2022/12/14 12:42:55;;;;;;;30.40;17.48;;;-0.90;1.00;;;;;;5045540;28;20488;-81
2022/12/14 12:45:39;;;;;;;29.17;16.02;;;-1.00;2.50;;;;;;5047967;28;20060;-81
2022/12/14 12:48:25;;;;;;;34.60;17.35;;;-1.10;8.40;;;;;;5031072;28;20039;-82
2022/12/14 12:50:56;;;;;;;26.70;16.75;;;-1.00;12.60;;;;;;5046865;28;20029;-81
2022/12/14 12:53:32;;;;;;;33.20;18.42;;;-0.90;13.50;;;;;;5030635;28;20036;-83
2022/12/14 12:56:09;;;;;;;33.15;17.33;;;-0.90;9.80;;;;;;5049635;28;20036;-81
2022/12/14 12:58:37;;;;;;;30.48;17.85;;;-0.90;6.60;;;;;;5046247;28;20039;-82
2022/12/14 13:01:26;;;;;;;26.75;15.68;;;-0.90;6.80;;;;;;5048380;28;20040;-81
2022/12/14 13:03:57;;;;;;;29.95;17.65;;;-0.90;6.80;;;;;;5049159;28;20386;-82
2022/12/14 13:06:30;;;;;;;26.50;16.13;;;-0.90;7.90;;;;;;5048135;28;20036;-83
2022/12/14 13:08:59;;;;;;;27.45;16.80;;;-0.90;6.10;;;;;;5029758;28;20053;-83
2022/12/14 13:11:34;;;;;;;35.95;18.80;;;-0.90;2.20;;;;;;5043843;28;20029;-83
2022/12/14 13:14:18;;;;;;;33.97;18.85;;;-0.90;2.60;;;;;;5050500;28;20041;-83
2022/12/14 13:16:46;;;;;;;29.48;17.52;;;-1.00;1.00;;;;;;5050092;28;20362;-82
2022/12/14 13:19:25;;;;;;;26.85;16.60;;;-1.00;1.00;;;;;;5049063;28;20033;-81
2022/12/14 13:21:52;;;;;;;30.30;16.50;;;-1.00;1.00;;;;;;5050208;28;20041;-82
2022/12/14 13:24:20;;;;;;;28.58;16.38;;;-1.10;1.00;;;;;;5049493;28;20036;-78
2022/12/14 13:27:13;;;;;;;31.52;18.90;;;-1.10;1.30;;;;;;5050292;28;20408;-82